createdAt,value
2022-08-01T00:00:09.945Z,10.80
2022-08-01T00:02:43.702Z,21.55
2022-08-01T00:05:11.871Z,13.38
2022-08-01T00:07:39.092Z,12.02
2022-08-01T00:10:08.052Z,10.45
2022-08-01T00:12:34.922Z,11.77
2022-08-01T00:15:01.727Z,14.32
2022-08-01T00:17:28.479Z,9.52
2022-08-01T00:19:55.153Z,10.45
2022-08-01T00:22:21.783Z,11.07
2022-08-01T00:24:48.629Z,9.90
2022-08-01T00:27:15.366Z,9.95
2022-08-01T00:30:13.571Z,11.02
2022-08-01T00:32:32.553Z,9.95
2022-08-01T00:34:59.358Z,10.50
2022-08-01T00:37:26.058Z,12.00
2022-08-01T00:39:52.793Z,9.25
2022-08-01T00:42:19.610Z,10.07
2022-08-01T00:44:46.280Z,14.73
2022-08-01T00:47:13.217Z,13.88
2022-08-01T00:49:39.973Z,12.82
2022-08-01T00:52:07.461Z,14.55
2022-08-01T00:54:34.536Z,13.90
2022-08-01T00:57:01.214Z,14.18
2022-08-01T00:59:28.823Z,13.65
2022-08-01T01:01:56.001Z,12.70
2022-08-01T01:04:23.409Z,14.02
2022-08-01T01:07:01.137Z,13.40
2022-08-01T01:09:45.801Z,12.45
2022-08-01T01:12:37.276Z,12.43
2022-08-01T01:15:11.976Z,16.15
2022-08-01T01:17:52.108Z,16.10
2022-08-01T01:20:21.285Z,16.95
2022-08-01T01:22:54.133Z,20.80
2022-08-01T01:25:31.764Z,13.50
2022-08-01T01:28:10.079Z,14.48
2022-08-01T01:30:38.621Z,11.43
2022-08-01T01:33:08.464Z,15.27
2022-08-01T01:35:39.296Z,15.50
2022-08-01T01:38:10.255Z,17.65
2022-08-01T01:40:38.296Z,18.13
2022-08-01T01:43:05.853Z,14.15
2022-08-01T01:45:33.089Z,19.02
2022-08-01T01:48:00.133Z,19.75
2022-08-01T01:50:27.413Z,21.38
2022-08-01T01:52:55.740Z,16.67
2022-08-01T01:55:23.493Z,20.10
2022-08-01T01:57:51.808Z,15.52
2022-08-01T02:00:18.651Z,17.55
2022-08-01T02:02:45.723Z,19.25
2022-08-01T02:05:13.708Z,16.75
2022-08-01T02:07:40.795Z,18.40
2022-08-01T02:10:08.586Z,15.40
2022-08-01T02:12:38.092Z,23.90
2022-08-01T02:15:05.974Z,19.55
2022-08-01T02:17:33.263Z,15.18
2022-08-01T02:19:59.990Z,19.20
2022-08-01T02:22:42.034Z,17.52
2022-08-01T02:25:22.637Z,18.40
2022-08-01T02:28:02.414Z,24.77
2022-08-01T02:30:34.902Z,18.58
2022-08-01T02:33:15.664Z,21.38
2022-08-01T02:36:30.666Z,19.30
2022-08-01T02:38:34.045Z,21.48
2022-08-01T02:41:05.308Z,19.17
2022-08-01T02:43:33.835Z,24.95
2022-08-01T02:46:03.094Z,18.65
2022-08-01T02:48:31.585Z,21.88
2022-08-01T02:50:59.881Z,22.10
2022-08-01T02:53:44.243Z,28.55
2022-08-01T02:56:12.978Z,21.50
2022-08-01T02:58:40.567Z,22.92
2022-08-01T03:01:08.760Z,25.70
2022-08-01T03:03:36.144Z,27.33
2022-08-01T03:06:03.838Z,25.02
2022-08-01T03:08:31.265Z,26.90
2022-08-01T03:10:59.437Z,22.70
2022-08-01T03:13:27.120Z,22.65
2022-08-01T03:15:54.674Z,21.38
2022-08-01T03:18:23.107Z,23.48
2022-08-01T03:20:50.348Z,25.40
2022-08-01T03:23:18.340Z,25.30
2022-08-01T03:25:45.672Z,21.30
2022-08-01T03:28:14.864Z,24.45
2022-08-01T03:30:41.865Z,22.20
2022-08-01T03:33:08.849Z,24.70
2022-08-01T03:35:38.942Z,20.23
2022-08-01T03:38:16.251Z,22.63
2022-08-01T03:40:50.426Z,27.00
2022-08-01T03:43:20.603Z,20.92
2022-08-01T03:45:50.836Z,23.00
2022-08-01T03:48:19.609Z,24.15
2022-08-01T03:50:52.681Z,22.17
2022-08-01T03:53:24.080Z,18.50
2022-08-01T03:55:51.837Z,21.48
2022-08-01T03:58:18.859Z,20.17
2022-08-01T04:00:46.248Z,18.77
2022-08-01T04:03:13.853Z,19.75
2022-08-01T04:05:44.493Z,17.02
2022-08-01T04:08:11.457Z,18.20
2022-08-01T04:10:39.067Z,18.60
2022-08-01T04:13:05.738Z,18.27
2022-08-01T04:15:32.531Z,18.77
2022-08-01T04:17:59.733Z,19.05
2022-08-01T04:20:26.588Z,15.13
2022-08-01T04:22:53.310Z,19.50
2022-08-01T04:25:35.296Z,20.15
2022-08-01T04:28:06.474Z,19.27
2022-08-01T04:30:35.788Z,15.35
2022-08-01T04:33:04.195Z,17.40
2022-08-01T04:36:01.503Z,15.13
2022-08-01T04:38:23.620Z,21.67
2022-08-01T04:40:51.953Z,15.63
2022-08-01T04:43:19.968Z,17.08
2022-08-01T04:45:47.801Z,15.57
2022-08-01T04:48:16.803Z,14.82
2022-08-01T04:50:43.591Z,14.07
2022-08-01T04:53:20.400Z,18.05
2022-08-01T04:55:47.487Z,16.15
2022-08-01T04:58:18.177Z,15.55
2022-08-01T05:00:46.088Z,15.63
2022-08-01T05:03:12.764Z,14.90
2022-08-01T05:05:39.468Z,17.33
2022-08-01T05:08:07.151Z,15.27
2022-08-01T05:10:34.455Z,17.08
2022-08-01T05:13:01.287Z,17.77
2022-08-01T05:15:28.638Z,18.67
2022-08-01T05:17:55.594Z,13.63
2022-08-01T05:20:22.428Z,16.92
2022-08-01T05:22:49.232Z,20.15
2022-08-01T05:25:20.386Z,20.17
2022-08-01T05:27:49.194Z,16.05
2022-08-01T05:30:17.945Z,15.82
2022-08-01T05:32:44.854Z,14.52
2022-08-01T05:35:11.934Z,16.27
2022-08-01T05:37:38.661Z,19.70
2022-08-01T05:40:08.446Z,17.40
2022-08-01T05:42:37.553Z,16.67
2022-08-01T05:45:04.724Z,15.38
2022-08-01T05:47:31.492Z,14.50
2022-08-01T05:49:58.256Z,13.18
2022-08-01T05:52:24.998Z,15.52
2022-08-01T05:54:51.776Z,15.10
2022-08-01T05:57:18.654Z,15.82
2022-08-01T05:59:45.305Z,15.23
2022-08-01T06:02:12.266Z,15.82
2022-08-01T06:04:38.998Z,14.77
2022-08-01T06:07:05.760Z,13.13
2022-08-01T06:09:32.535Z,14.13
2022-08-01T06:11:59.260Z,15.63
2022-08-01T06:14:25.957Z,15.13
2022-08-01T06:16:52.684Z,16.33
2022-08-01T06:19:19.399Z,12.68
2022-08-01T06:21:46.126Z,13.05
2022-08-01T06:24:12.840Z,10.00
2022-08-01T06:26:39.577Z,15.68
2022-08-01T06:29:06.307Z,10.15
2022-08-01T06:31:34.014Z,9.05
2022-08-01T06:34:00.800Z,9.30
2022-08-01T06:36:27.772Z,9.43
2022-08-01T06:38:54.433Z,10.48
2022-08-01T06:41:21.207Z,9.20
2022-08-01T06:43:47.869Z,8.15
2022-08-01T06:46:14.778Z,7.82
2022-08-01T06:48:41.737Z,9.30
2022-08-01T06:51:14.610Z,10.13
2022-08-01T06:53:41.370Z,10.02
2022-08-01T06:56:10.784Z,8.45
2022-08-01T06:58:37.692Z,7.03
2022-08-01T07:01:08.776Z,6.90
2022-08-01T07:03:52.318Z,6.38
2022-08-01T07:06:24.421Z,6.63
2022-08-01T07:08:51.478Z,8.70
2022-08-01T07:11:18.358Z,7.85
2022-08-01T07:13:46.797Z,8.68
2022-08-01T07:16:14.624Z,6.03
2022-08-01T07:18:41.891Z,8.55
2022-08-01T07:21:16.403Z,6.63
2022-08-01T07:23:55.922Z,5.00
2022-08-01T07:26:23.339Z,7.85
2022-08-01T07:28:50.575Z,4.93
2022-08-01T07:31:17.429Z,5.88
2022-08-01T07:33:49.046Z,5.47
2022-08-01T07:36:19.827Z,7.43
2022-08-01T07:38:47.395Z,6.68
2022-08-01T07:41:14.588Z,4.63
2022-08-01T07:43:47.247Z,5.60
2022-08-01T07:46:23.038Z,3.85
2022-08-01T07:48:49.933Z,3.88
2022-08-01T07:51:16.871Z,4.80
2022-08-01T07:53:43.529Z,5.40
2022-08-01T07:56:10.813Z,5.80
2022-08-01T07:58:37.737Z,4.40
2022-08-01T08:01:04.940Z,3.78
2022-08-01T08:03:31.687Z,3.47
2022-08-01T08:06:00.237Z,3.72
2022-08-01T08:08:27.495Z,4.82
2022-08-01T08:10:54.355Z,6.45
2022-08-01T08:13:21.147Z,6.32
2022-08-01T08:15:48.881Z,3.47
2022-08-01T08:18:16.272Z,3.75
2022-08-01T08:20:43.503Z,5.22
2022-08-01T08:23:41.349Z,3.35
2022-08-01T08:26:11.872Z,3.67
2022-08-01T08:28:38.819Z,4.78
2022-08-01T08:31:08.087Z,5.13
2022-08-01T08:33:52.659Z,5.95
2022-08-01T08:36:19.355Z,6.97
2022-08-01T08:38:46.362Z,7.50
2022-08-01T08:41:15.865Z,8.13
2022-08-01T08:43:44.716Z,5.72
2022-08-01T08:46:12.817Z,6.22
2022-08-01T08:48:41.272Z,4.40
2022-08-01T08:51:09.787Z,3.58
2022-08-01T08:53:36.832Z,3.75
2022-08-01T08:56:04.116Z,3.58
2022-08-01T08:58:35.140Z,3.95
2022-08-01T09:01:02.257Z,2.80
2022-08-01T09:03:29.167Z,4.53
2022-08-01T09:05:55.935Z,2.58
2022-08-01T09:08:22.653Z,2.63
2022-08-01T09:10:49.400Z,3.35
2022-08-01T09:13:16.373Z,3.00
2022-08-01T09:15:51.600Z,4.18
2022-08-01T09:18:32.785Z,4.07
2022-08-01T09:21:08.525Z,2.90
2022-08-01T09:23:54.165Z,5.95
2022-08-01T09:26:34.024Z,3.53
2022-08-01T09:29:04.705Z,2.55
2022-08-01T09:31:42.391Z,2.78
2022-08-01T09:34:15.938Z,4.57
2022-08-01T09:37:07.698Z,2.92
2022-08-01T09:39:40.716Z,3.08
2022-08-01T09:42:28.672Z,4.03
2022-08-01T09:44:56.391Z,4.97
2022-08-01T09:47:23.874Z,3.58
2022-08-01T09:49:57.354Z,5.78
2022-08-01T09:52:29.111Z,3.55
2022-08-01T09:55:06.121Z,5.97
2022-08-01T09:57:33.365Z,5.50
2022-08-01T10:00:04.290Z,3.42
2022-08-01T10:02:41.112Z,4.68
2022-08-01T10:05:10.562Z,1.95
2022-08-01T10:08:01.446Z,2.53
2022-08-01T10:10:31.465Z,3.00
2022-08-01T10:12:59.867Z,3.33
2022-08-01T10:15:37.247Z,2.38
2022-08-01T10:18:16.040Z,2.30
2022-08-01T10:20:44.011Z,2.50
2022-08-01T10:23:11.615Z,2.22
2022-08-01T10:25:46.636Z,3.50
2022-08-01T10:28:21.274Z,3.13
2022-08-01T10:30:51.197Z,1.92
2022-08-01T10:33:51.974Z,2.15
2022-08-01T10:36:10.927Z,4.07
2022-08-01T10:38:38.213Z,2.60
2022-08-01T10:41:08.576Z,2.40
2022-08-01T10:43:36.624Z,2.53
2022-08-01T10:46:05.164Z,2.08
2022-08-01T10:48:50.277Z,1.80
2022-08-01T10:51:27.084Z,3.58
2022-08-01T10:54:13.387Z,2.30
2022-08-01T10:56:50.852Z,6.25
2022-08-01T10:59:39.027Z,1.80
2022-08-01T11:02:10.085Z,4.88
2022-08-01T11:04:56.223Z,1.70
2022-08-01T11:07:25.899Z,2.28
2022-08-01T11:10:26.163Z,2.22
2022-08-01T11:12:53.722Z,5.57
2022-08-01T11:15:30.023Z,2.03
2022-08-01T11:18:00.482Z,2.67
2022-08-01T11:20:32.715Z,1.63
2022-08-01T11:23:00.197Z,2.67
2022-08-01T11:26:06.138Z,1.70
2022-08-01T11:28:37.088Z,1.60
2022-08-01T11:31:10.764Z,2.20
2022-08-01T11:33:46.155Z,2.80
2022-08-01T11:36:14.131Z,3.00
2022-08-01T11:39:00.823Z,2.05
2022-08-01T11:41:34.279Z,2.75
2022-08-01T11:44:24.786Z,1.50
2022-08-01T11:47:01.830Z,1.83
2022-08-01T11:49:38.750Z,1.80
2022-08-01T11:52:30.173Z,1.55
2022-08-01T11:55:10.070Z,1.42
2022-08-01T11:57:38.230Z,3.22
2022-08-01T12:00:26.315Z,1.33
2022-08-01T12:03:04.418Z,1.40
2022-08-01T12:05:34.411Z,2.58
2022-08-01T12:08:01.863Z,3.78
2022-08-01T12:10:47.197Z,2.75
2022-08-01T12:13:17.345Z,2.72
2022-08-01T12:15:44.419Z,1.70
2022-08-01T12:18:14.845Z,1.50
2022-08-01T12:20:56.133Z,1.75
2022-08-01T12:23:23.361Z,2.63
2022-08-01T12:25:55.663Z,6.60
2022-08-01T12:28:25.581Z,3.80
2022-08-01T12:30:54.817Z,3.28
2022-08-01T12:33:24.700Z,2.45
2022-08-01T12:35:51.566Z,1.45
2022-08-01T12:38:20.945Z,1.92
2022-08-01T12:40:52.960Z,2.50
2022-08-01T12:43:27.803Z,4.13
2022-08-01T12:46:00.787Z,1.83
2022-08-01T12:48:28.301Z,1.98
2022-08-01T12:50:58.648Z,8.02
2022-08-01T12:53:27.059Z,9.25
2022-08-01T12:56:07.125Z,1.50
2022-08-01T12:58:39.395Z,1.63
2022-08-01T13:01:16.353Z,1.50
2022-08-01T13:04:01.486Z,3.10
2022-08-01T13:09:12.486Z,1.83
2022-08-01T13:12:04.098Z,1.77
2022-08-01T13:14:41.842Z,2.35
2022-08-01T13:17:09.225Z,6.38
2022-08-01T13:19:49.005Z,2.33
2022-08-01T13:22:23.850Z,2.42
2022-08-01T13:24:50.829Z,3.10
2022-08-01T13:27:24.383Z,3.10
2022-08-01T13:29:53.977Z,3.15
2022-08-01T13:32:30.085Z,3.80
2022-08-01T13:35:07.400Z,4.95
2022-08-01T13:37:39.369Z,3.10
2022-08-01T13:40:08.396Z,2.63
2022-08-01T13:42:37.883Z,2.88
2022-08-01T13:45:15.475Z,3.60
2022-08-01T13:48:03.737Z,3.17
2022-08-01T13:50:40.213Z,2.53
2022-08-01T13:53:13.065Z,4.40
2022-08-01T13:55:47.485Z,3.92
2022-08-01T13:59:17.943Z,2.25
2022-08-01T14:01:50.202Z,3.20
2022-08-01T14:04:17.535Z,2.10
2022-08-01T14:07:36.477Z,1.77
2022-08-01T14:10:19.378Z,4.05
2022-08-01T14:12:53.516Z,3.90
2022-08-01T14:15:37.921Z,5.78
2022-08-01T14:18:33.207Z,5.65
2022-08-01T14:21:05.700Z,3.50
2022-08-01T14:23:38.287Z,3.47
2022-08-01T14:26:12.535Z,2.70
2022-08-01T14:29:10.839Z,3.00
2022-08-01T14:31:37.698Z,4.93
2022-08-01T14:34:04.395Z,4.97
2022-08-01T14:36:32.509Z,4.45
2022-08-01T14:39:05.277Z,4.73
2022-08-01T14:41:33.545Z,4.15
2022-08-01T14:44:02.706Z,3.38
2022-08-01T14:46:35.819Z,2.05
2022-08-01T14:49:02.694Z,3.08
2022-08-01T14:51:33.963Z,4.13
2022-08-01T14:54:01.201Z,2.60
2022-08-01T14:56:28.485Z,2.45
2022-08-01T14:58:58.229Z,4.75
2022-08-01T15:01:25.487Z,6.75
2022-08-01T15:03:56.950Z,5.50
2022-08-01T15:06:26.732Z,2.58
2022-08-01T15:08:53.528Z,3.30
2022-08-01T15:11:26.113Z,2.58
2022-08-01T15:14:19.969Z,5.55
2022-08-01T15:16:46.907Z,4.28
2022-08-01T15:19:17.434Z,3.88
2022-08-01T15:21:44.388Z,4.25
2022-08-01T15:24:13.936Z,4.95
2022-08-01T15:26:40.658Z,2.42
2022-08-01T15:29:13.706Z,2.92
2022-08-01T15:31:40.776Z,1.92
2022-08-01T15:34:07.862Z,1.85
2022-08-01T15:36:41.867Z,2.17
2022-08-01T15:39:12.689Z,3.53
2022-08-01T15:41:42.766Z,1.45
2022-08-01T15:44:16.245Z,2.65
2022-08-01T15:46:43.537Z,3.10
2022-08-01T15:49:11.655Z,4.70
2022-08-01T15:51:38.790Z,5.65
2022-08-01T15:54:09.240Z,1.85
2022-08-01T15:56:39.874Z,2.43
2022-08-01T15:59:23.041Z,1.70
2022-08-01T16:01:51.222Z,6.53
2022-08-01T16:04:19.541Z,1.95
2022-08-01T16:06:47.078Z,4.88
2022-08-01T16:09:19.197Z,1.40
2022-08-01T16:11:51.122Z,2.70
2022-08-01T16:14:18.454Z,2.10
2022-08-01T16:16:45.216Z,1.52
2022-08-01T16:19:19.101Z,1.88
2022-08-01T16:21:47.852Z,2.20
2022-08-01T16:24:15.245Z,2.63
2022-08-01T16:26:45.733Z,1.58
2022-08-01T16:29:29.424Z,2.92
2022-08-01T16:32:10.782Z,3.70
2022-08-01T16:34:46.756Z,4.90
2022-08-01T16:37:15.299Z,3.13
2022-08-01T16:39:51.551Z,1.90
2022-08-01T16:42:23.635Z,2.42
2022-08-01T16:45:22.419Z,2.45
2022-08-01T16:47:50.019Z,2.80
2022-08-01T16:51:08.955Z,5.63
2022-08-01T16:56:22.112Z,3.08
2022-08-01T16:58:54.425Z,1.35
2022-08-01T17:01:58.440Z,3.25
2022-08-01T17:04:16.136Z,3.28
2022-08-01T17:06:53.912Z,16.58
2022-08-01T17:09:23.149Z,6.68
2022-08-01T17:11:50.217Z,3.25
2022-08-01T17:14:26.291Z,2.35
2022-08-01T17:16:53.236Z,2.90
2022-08-01T17:19:20.013Z,2.38
2022-08-01T17:21:56.074Z,3.20
2022-08-01T17:24:23.725Z,2.20
2022-08-01T17:26:50.859Z,2.22
2022-08-01T17:29:17.983Z,2.30
2022-08-01T17:31:44.657Z,1.42
2022-08-01T17:34:22.410Z,2.67
2022-08-01T17:36:49.561Z,2.70
2022-08-01T17:42:17.012Z,3.40
2022-08-01T17:44:49.130Z,1.85
2022-08-01T17:47:49.349Z,1.20
2022-08-01T17:50:20.196Z,2.83
2022-08-01T17:52:50.204Z,2.15
2022-08-01T17:55:55.834Z,4.78
2022-08-01T17:58:07.217Z,1.75
2022-08-01T18:00:40.933Z,2.72
2022-08-01T18:03:50.035Z,1.38
2022-08-01T18:06:32.135Z,2.30
2022-08-01T18:09:03.086Z,3.03
2022-08-01T18:11:37.242Z,3.63
2022-08-01T18:14:05.123Z,2.17
2022-08-01T18:16:31.964Z,1.77
2022-08-01T18:19:04.983Z,3.70
2022-08-01T18:21:37.581Z,2.13
2022-08-01T18:24:11.888Z,2.97
2022-08-01T18:26:41.245Z,2.45
2022-08-01T18:29:08.099Z,3.08
2022-08-01T18:31:38.312Z,6.80
2022-08-01T18:34:06.727Z,3.55
2022-08-01T18:36:39.701Z,3.10
2022-08-01T18:39:10.349Z,2.30
2022-08-01T18:41:38.290Z,3.72
2022-08-01T18:44:08.249Z,2.95
2022-08-01T18:46:41.959Z,4.65
2022-08-01T18:54:25.368Z,3.40
2022-08-01T18:57:01.246Z,5.45
2022-08-01T18:59:30.240Z,4.60
2022-08-01T19:02:04.702Z,5.07
2022-08-01T19:04:31.638Z,3.00
2022-08-01T19:06:58.760Z,4.20
2022-08-01T19:09:27.608Z,3.70
2022-08-01T19:11:56.607Z,5.40
2022-08-01T19:14:29.057Z,4.97
2022-08-01T19:16:56.619Z,6.95
2022-08-01T19:19:28.037Z,3.78
2022-08-01T19:21:55.290Z,7.32
2022-08-01T19:24:23.355Z,4.32
2022-08-01T19:26:51.691Z,4.05
2022-08-01T19:29:35.877Z,4.05
2022-08-01T19:32:05.552Z,4.68
2022-08-01T19:34:35.481Z,2.53
2022-08-01T19:37:04.037Z,5.43
2022-08-01T19:39:44.238Z,9.02
2022-08-01T19:42:12.763Z,6.63
2022-08-01T19:44:40.014Z,9.77
2022-08-01T19:47:07.310Z,8.35
2022-08-01T19:49:38.512Z,6.05
2022-08-01T19:52:05.971Z,5.57
2022-08-01T19:54:40.182Z,8.48
2022-08-01T19:57:08.117Z,6.95
2022-08-01T19:59:35.985Z,7.03
2022-08-01T20:02:04.526Z,15.40
2022-08-01T20:04:31.604Z,5.72
2022-08-01T20:06:59.102Z,10.10
2022-08-01T20:09:27.769Z,8.10
2022-08-01T20:11:55.023Z,11.52
2022-08-01T20:14:25.926Z,6.80
2022-08-01T20:16:54.486Z,6.68
2022-08-01T20:19:24.343Z,4.35
2022-08-01T20:22:04.193Z,4.38
2022-08-01T20:24:38.082Z,5.50
2022-08-01T20:27:08.240Z,9.23
2022-08-01T20:29:36.620Z,5.28
2022-08-01T20:32:03.960Z,9.23
2022-08-01T20:34:34.315Z,4.53
2022-08-01T20:37:01.382Z,5.45
2022-08-01T20:39:36.336Z,6.38
2022-08-01T20:42:04.002Z,7.20
2022-08-01T20:44:33.819Z,10.63
2022-08-01T20:47:02.598Z,17.27
2022-08-01T20:49:30.201Z,6.95
2022-08-01T20:51:57.270Z,10.65
2022-08-01T20:54:24.040Z,3.83
2022-08-01T20:57:05.145Z,10.05
2022-08-01T20:59:39.545Z,6.63
2022-08-01T21:02:41.521Z,5.15
2022-08-01T21:05:12.569Z,4.82
2022-08-01T21:07:43.446Z,6.53
2022-08-01T21:10:12.980Z,8.48
2022-08-01T21:13:07.442Z,7.20
2022-08-01T21:15:40.350Z,5.35
2022-08-01T21:18:58.197Z,6.85
2022-08-01T21:21:35.694Z,5.43
2022-08-01T21:24:09.136Z,6.05
2022-08-01T21:26:36.239Z,6.03
2022-08-01T21:29:07.387Z,8.55
2022-08-01T21:31:40.954Z,6.35
2022-08-01T21:34:09.040Z,5.00
2022-08-01T21:36:36.596Z,4.82
2022-08-01T21:39:06.018Z,5.70
2022-08-01T21:41:58.044Z,4.03
2022-08-01T21:44:20.182Z,5.22
2022-08-01T21:46:48.189Z,9.68
2022-08-01T21:49:15.003Z,4.93
2022-08-01T21:51:45.534Z,8.32
2022-08-01T21:54:27.505Z,6.32
2022-08-01T21:56:54.178Z,7.00
2022-08-01T21:59:30.861Z,5.85
2022-08-01T22:02:02.187Z,4.57
2022-08-01T22:04:52.776Z,6.72
2022-08-01T22:07:19.449Z,8.52
2022-08-01T22:09:49.032Z,6.10
2022-08-01T22:12:18.910Z,8.13
2022-08-01T22:14:49.109Z,10.13
2022-08-01T22:17:23.762Z,9.05
2022-08-01T22:19:54.035Z,10.38
2022-08-01T22:22:45.063Z,9.95
2022-08-01T22:25:12.100Z,9.48
2022-08-01T22:28:06.743Z,8.73
2022-08-01T22:30:29.057Z,5.35
2022-08-01T22:33:15.391Z,7.10
2022-08-01T22:35:45.651Z,5.03
2022-08-01T22:38:12.573Z,6.45
2022-08-01T22:40:45.927Z,10.02
2022-08-01T22:43:43.028Z,9.80
2022-08-01T22:46:29.431Z,7.90
2022-08-01T22:49:14.830Z,5.22
2022-08-01T22:54:29.259Z,6.20
2022-08-01T22:56:57.337Z,7.18
2022-08-01T22:59:42.634Z,4.03
2022-08-01T23:02:10.560Z,5.93
2022-08-01T23:04:45.915Z,5.13
2022-08-01T23:09:54.118Z,9.00
2022-08-01T23:12:24.159Z,6.30
2022-08-01T23:14:53.323Z,9.32
2022-08-01T23:17:26.879Z,10.57
2022-08-01T23:22:29.169Z,7.05
2022-08-01T23:25:03.430Z,9.85
2022-08-01T23:28:03.917Z,7.40
2022-08-01T23:30:19.733Z,9.48
2022-08-01T23:32:46.307Z,8.30
2022-08-01T23:35:12.966Z,7.68
2022-08-01T23:37:39.596Z,5.68
2022-08-01T23:40:06.768Z,6.72
2022-08-01T23:42:33.502Z,5.85
2022-08-01T23:45:00.145Z,5.70
2022-08-01T23:47:26.934Z,9.27
2022-08-01T23:49:53.847Z,7.85
2022-08-01T23:52:21.567Z,6.35
2022-08-01T23:54:48.338Z,10.90
2022-08-01T23:57:16.516Z,6.30
2022-08-01T23:59:53.205Z,7.28
